sensor_id;sensor_type;location;lat;lon;timestamp;temperature;humidity
45233;DHT22;30969;51.052;17.056;2023-06-14T00:04:22;17.30;39.00
45233;DHT22;30969;51.052;17.056;2023-06-14T00:09:27;17.30;39.30
45233;DHT22;30969;51.052;17.056;2023-06-14T00:14:31;17.20;39.20
45233;DHT22;30969;51.052;17.056;2023-06-14T00:19:36;17.20;39.00
45233;DHT22;30969;51.052;17.056;2023-06-14T00:24:40;17.10;38.90
45233;DHT22;30969;51.052;17.056;2023-06-14T00:29:44;17.10;39.40
45233;DHT22;30969;51.052;17.056;2023-06-14T00:34:50;17.00;39.30
45233;DHT22;30969;51.052;17.056;2023-06-14T00:39:54;16.90;39.40
45233;DHT22;30969;51.052;17.056;2023-06-14T00:44:58;16.90;39.70
45233;DHT22;30969;51.052;17.056;2023-06-14T00:50:07;16.80;39.60
45233;DHT22;30969;51.052;17.056;2023-06-14T00:55:11;16.80;39.90
45233;DHT22;30969;51.052;17.056;2023-06-14T01:00:15;16.70;40.00
45233;DHT22;30969;51.052;17.056;2023-06-14T01:05:21;16.60;40.00
45233;DHT22;30969;51.052;17.056;2023-06-14T01:10:35;16.60;40.20
45233;DHT22;30969;51.052;17.056;2023-06-14T01:15:41;16.50;40.30
45233;DHT22;30969;51.052;17.056;2023-06-14T01:20:47;16.50;40.30
45233;DHT22;30969;51.052;17.056;2023-06-14T01:25:54;16.40;40.70
45233;DHT22;30969;51.052;17.056;2023-06-14T01:31:00;16.40;40.60
45233;DHT22;30969;51.052;17.056;2023-06-14T01:36:07;16.30;40.60
45233;DHT22;30969;51.052;17.056;2023-06-14T01:41:13;16.30;40.70
45233;DHT22;30969;51.052;17.056;2023-06-14T01:46:18;16.30;40.90
45233;DHT22;30969;51.052;17.056;2023-06-14T01:51:22;16.20;40.90
45233;DHT22;30969;51.052;17.056;2023-06-14T01:56:27;16.20;40.80
45233;DHT22;30969;51.052;17.056;2023-06-14T02:01:31;16.10;40.90
45233;DHT22;30969;51.052;17.056;2023-06-14T02:06:36;16.10;40.90
45233;DHT22;30969;51.052;17.056;2023-06-14T02:11:41;16.00;41.30
45233;DHT22;30969;51.052;17.056;2023-06-14T02:16:45;15.90;41.50
45233;DHT22;30969;51.052;17.056;2023-06-14T02:21:51;15.90;41.70
45233;DHT22;30969;51.052;17.056;2023-06-14T02:26:56;15.90;41.70
45233;DHT22;30969;51.052;17.056;2023-06-14T02:31:59;15.90;42.10
45233;DHT22;30969;51.052;17.056;2023-06-14T02:37:04;15.90;41.90
45233;DHT22;30969;51.052;17.056;2023-06-14T02:42:09;15.80;41.70
45233;DHT22;30969;51.052;17.056;2023-06-14T02:47:12;15.80;42.00
45233;DHT22;30969;51.052;17.056;2023-06-14T02:52:16;15.70;41.70
45233;DHT22;30969;51.052;17.056;2023-06-14T02:57:22;15.70;43.00
45233;DHT22;30969;51.052;17.056;2023-06-14T03:02:26;15.70;41.80
45233;DHT22;30969;51.052;17.056;2023-06-14T03:07:29;15.70;41.80
45233;DHT22;30969;51.052;17.056;2023-06-14T03:12:34;15.80;41.50
45233;DHT22;30969;51.052;17.056;2023-06-14T03:17:39;15.80;41.70
45233;DHT22;30969;51.052;17.056;2023-06-14T03:22:48;15.80;41.60
45233;DHT22;30969;51.052;17.056;2023-06-14T03:27:57;15.80;41.60
45233;DHT22;30969;51.052;17.056;2023-06-14T03:33:01;15.80;42.00
45233;DHT22;30969;51.052;17.056;2023-06-14T03:38:06;15.80;41.80
45233;DHT22;30969;51.052;17.056;2023-06-14T03:43:11;15.90;42.40
45233;DHT22;30969;51.052;17.056;2023-06-14T03:48:14;15.90;42.10
45233;DHT22;30969;51.052;17.056;2023-06-14T03:53:18;15.90;42.00
45233;DHT22;30969;51.052;17.056;2023-06-14T03:58:24;16.00;42.10
45233;DHT22;30969;51.052;17.056;2023-06-14T04:03:27;16.00;42.30
45233;DHT22;30969;51.052;17.056;2023-06-14T04:08:32;16.00;41.90
45233;DHT22;30969;51.052;17.056;2023-06-14T04:13:39;16.10;41.80
45233;DHT22;30969;51.052;17.056;2023-06-14T04:18:43;16.20;42.30
45233;DHT22;30969;51.052;17.056;2023-06-14T04:23:47;16.30;42.40
45233;DHT22;30969;51.052;17.056;2023-06-14T04:28:52;16.30;42.30
45233;DHT22;30969;51.052;17.056;2023-06-14T04:33:59;16.30;42.30
45233;DHT22;30969;51.052;17.056;2023-06-14T04:39:03;16.40;42.30
45233;DHT22;30969;51.052;17.056;2023-06-14T04:44:09;16.40;42.20
45233;DHT22;30969;51.052;17.056;2023-06-14T04:49:13;16.50;42.10
45233;DHT22;30969;51.052;17.056;2023-06-14T04:54:17;16.50;42.30
45233;DHT22;30969;51.052;17.056;2023-06-14T04:59:23;16.50;42.20
45233;DHT22;30969;51.052;17.056;2023-06-14T05:04:27;16.50;43.00
45233;DHT22;30969;51.052;17.056;2023-06-14T05:09:31;16.50;42.50
45233;DHT22;30969;51.052;17.056;2023-06-14T05:14:37;16.50;44.10
45233;DHT22;30969;51.052;17.056;2023-06-14T05:19:41;16.60;42.90
45233;DHT22;30969;51.052;17.056;2023-06-14T05:24:44;16.60;43.50
45233;DHT22;30969;51.052;17.056;2023-06-14T05:29:52;16.60;43.60
45233;DHT22;30969;51.052;17.056;2023-06-14T05:34:58;16.70;43.30
45233;DHT22;30969;51.052;17.056;2023-06-14T05:40:02;16.80;43.90
45233;DHT22;30969;51.052;17.056;2023-06-14T05:45:09;16.90;44.20
45233;DHT22;30969;51.052;17.056;2023-06-14T05:50:13;16.90;43.70
45233;DHT22;30969;51.052;17.056;2023-06-14T05:55:17;17.00;44.10
45233;DHT22;30969;51.052;17.056;2023-06-14T06:00:22;17.10;44.20
45233;DHT22;30969;51.052;17.056;2023-06-14T06:05:26;17.20;44.40
45233;DHT22;30969;51.052;17.056;2023-06-14T06:10:29;17.20;44.30
45233;DHT22;30969;51.052;17.056;2023-06-14T06:15:35;17.30;44.20
45233;DHT22;30969;51.052;17.056;2023-06-14T06:20:38;17.40;45.00
45233;DHT22;30969;51.052;17.056;2023-06-14T06:25:43;17.40;45.60
45233;DHT22;30969;51.052;17.056;2023-06-14T06:30:51;17.50;46.20
45233;DHT22;30969;51.052;17.056;2023-06-14T06:35:55;17.50;46.70
45233;DHT22;30969;51.052;17.056;2023-06-14T06:40:59;17.60;47.90
45233;DHT22;30969;51.052;17.056;2023-06-14T06:46:04;17.60;49.30
45233;DHT22;30969;51.052;17.056;2023-06-14T06:51:08;17.70;50.00
45233;DHT22;30969;51.052;17.056;2023-06-14T06:56:11;17.70;49.70
45233;DHT22;30969;51.052;17.056;2023-06-14T07:01:16;17.70;49.00
45233;DHT22;30969;51.052;17.056;2023-06-14T07:06:21;17.80;50.00
45233;DHT22;30969;51.052;17.056;2023-06-14T07:11:25;17.80;50.70
45233;DHT22;30969;51.052;17.056;2023-06-14T07:16:30;17.90;51.50
45233;DHT22;30969;51.052;17.056;2023-06-14T07:21:33;18.00;51.30
45233;DHT22;30969;51.052;17.056;2023-06-14T07:26:37;18.00;51.00
45233;DHT22;30969;51.052;17.056;2023-06-14T07:31:42;18.10;51.10
45233;DHT22;30969;51.052;17.056;2023-06-14T07:36:46;18.20;51.60
45233;DHT22;30969;51.052;17.056;2023-06-14T07:41:51;18.20;51.70
45233;DHT22;30969;51.052;17.056;2023-06-14T07:46:55;18.30;51.70
45233;DHT22;30969;51.052;17.056;2023-06-14T07:52:00;18.40;51.40
45233;DHT22;30969;51.052;17.056;2023-06-14T07:57:04;18.40;51.00
45233;DHT22;30969;51.052;17.056;2023-06-14T08:02:09;18.50;51.40
45233;DHT22;30969;51.052;17.056;2023-06-14T08:07:13;18.50;51.40
45233;DHT22;30969;51.052;17.056;2023-06-14T08:12:17;18.60;51.80
45233;DHT22;30969;51.052;17.056;2023-06-14T08:17:22;18.60;52.00
45233;DHT22;30969;51.052;17.056;2023-06-14T08:22:25;18.70;51.90
45233;DHT22;30969;51.052;17.056;2023-06-14T08:27:31;18.80;52.40
45233;DHT22;30969;51.052;17.056;2023-06-14T08:32:36;18.80;52.60
45233;DHT22;30969;51.052;17.056;2023-06-14T08:37:40;18.80;51.60
45233;DHT22;30969;51.052;17.056;2023-06-14T08:42:45;18.90;52.30
45233;DHT22;30969;51.052;17.056;2023-06-14T08:47:50;19.00;51.20
45233;DHT22;30969;51.052;17.056;2023-06-14T08:53:02;19.10;51.40
45233;DHT22;30969;51.052;17.056;2023-06-14T08:58:06;19.10;51.20
45233;DHT22;30969;51.052;17.056;2023-06-14T09:03:13;19.20;51.30
45233;DHT22;30969;51.052;17.056;2023-06-14T09:08:17;19.30;51.00
45233;DHT22;30969;51.052;17.056;2023-06-14T09:13:26;19.40;50.60
45233;DHT22;30969;51.052;17.056;2023-06-14T09:18:38;19.40;50.50
45233;DHT22;30969;51.052;17.056;2023-06-14T09:23:44;19.50;50.90
45233;DHT22;30969;51.052;17.056;2023-06-14T09:28:49;19.50;50.70
45233;DHT22;30969;51.052;17.056;2023-06-14T09:33:54;19.50;50.80
45233;DHT22;30969;51.052;17.056;2023-06-14T09:39:00;19.40;50.90
45233;DHT22;30969;51.052;17.056;2023-06-14T09:44:09;19.50;50.60
45233;DHT22;30969;51.052;17.056;2023-06-14T09:49:22;19.50;50.20
45233;DHT22;30969;51.052;17.056;2023-06-14T09:54:28;19.50;50.10
45233;DHT22;30969;51.052;17.056;2023-06-14T09:59:32;19.50;50.30
45233;DHT22;30969;51.052;17.056;2023-06-14T10:04:39;19.50;50.50
45233;DHT22;30969;51.052;17.056;2023-06-14T10:09:45;19.50;50.60
45233;DHT22;30969;51.052;17.056;2023-06-14T10:14:51;19.50;51.60
45233;DHT22;30969;51.052;17.056;2023-06-14T10:20:14;19.60;50.70
45233;DHT22;30969;51.052;17.056;2023-06-14T10:25:27;19.60;50.90
45233;DHT22;30969;51.052;17.056;2023-06-14T10:30:31;19.70;51.10
45233;DHT22;30969;51.052;17.056;2023-06-14T10:35:36;19.70;51.00
45233;DHT22;30969;51.052;17.056;2023-06-14T10:40:40;19.70;50.70
45233;DHT22;30969;51.052;17.056;2023-06-14T10:46:13;19.80;50.80
45233;DHT22;30969;51.052;17.056;2023-06-14T10:51:19;19.80;50.80
45233;DHT22;30969;51.052;17.056;2023-06-14T10:56:26;19.90;50.60
45233;DHT22;30969;51.052;17.056;2023-06-14T11:01:36;19.90;50.50
45233;DHT22;30969;51.052;17.056;2023-06-14T11:06:50;19.90;50.30
45233;DHT22;30969;51.052;17.056;2023-06-14T11:11:56;20.00;50.30
45233;DHT22;30969;51.052;17.056;2023-06-14T11:17:00;20.00;50.20
45233;DHT22;30969;51.052;17.056;2023-06-14T11:22:05;20.10;50.30
45233;DHT22;30969;51.052;17.056;2023-06-14T11:27:09;20.10;50.30
45233;DHT22;30969;51.052;17.056;2023-06-14T11:32:13;20.10;50.50
45233;DHT22;30969;51.052;17.056;2023-06-14T11:37:19;20.20;50.70
45233;DHT22;30969;51.052;17.056;2023-06-14T11:42:24;20.20;50.80
45233;DHT22;30969;51.052;17.056;2023-06-14T11:47:31;20.30;52.20
45233;DHT22;30969;51.052;17.056;2023-06-14T11:52:36;20.40;50.80
45233;DHT22;30969;51.052;17.056;2023-06-14T11:57:40;20.40;50.60
45233;DHT22;30969;51.052;17.056;2023-06-14T12:02:52;20.50;50.50
45233;DHT22;30969;51.052;17.056;2023-06-14T12:08:01;20.60;50.30
45233;DHT22;30969;51.052;17.056;2023-06-14T12:13:05;20.70;50.30
45233;DHT22;30969;51.052;17.056;2023-06-14T12:18:10;20.70;50.10
45233;DHT22;30969;51.052;17.056;2023-06-14T12:23:15;20.80;49.90
45233;DHT22;30969;51.052;17.056;2023-06-14T12:28:19;20.80;49.80
45233;DHT22;30969;51.052;17.056;2023-06-14T12:33:22;20.90;49.60
45233;DHT22;30969;51.052;17.056;2023-06-14T12:38:27;20.90;49.40
45233;DHT22;30969;51.052;17.056;2023-06-14T12:43:31;20.90;49.30
45233;DHT22;30969;51.052;17.056;2023-06-14T12:48:35;21.00;49.40
45233;DHT22;30969;51.052;17.056;2023-06-14T12:53:39;21.00;49.50
45233;DHT22;30969;51.052;17.056;2023-06-14T12:58:43;21.00;49.70
45233;DHT22;30969;51.052;17.056;2023-06-14T13:03:47;21.10;50.10
45233;DHT22;30969;51.052;17.056;2023-06-14T13:08:53;21.20;50.30
45233;DHT22;30969;51.052;17.056;2023-06-14T13:13:59;21.40;51.10
45233;DHT22;30969;51.052;17.056;2023-06-14T13:19:18;21.70;51.60
45233;DHT22;30969;51.052;17.056;2023-06-14T13:24:24;21.90;50.70
45233;DHT22;30969;51.052;17.056;2023-06-14T13:29:28;22.00;50.70
45233;DHT22;30969;51.052;17.056;2023-06-14T13:34:33;22.20;49.80
45233;DHT22;30969;51.052;17.056;2023-06-14T13:39:38;22.20;48.90
45233;DHT22;30969;51.052;17.056;2023-06-14T13:44:42;22.20;48.50
45233;DHT22;30969;51.052;17.056;2023-06-14T13:49:46;22.20;48.40
45233;DHT22;30969;51.052;17.056;2023-06-14T13:54:50;22.20;47.90
45233;DHT22;30969;51.052;17.056;2023-06-14T13:59:54;22.20;48.40
45233;DHT22;30969;51.052;17.056;2023-06-14T14:05:04;22.30;47.00
45233;DHT22;30969;51.052;17.056;2023-06-14T14:10:10;22.30;47.00
45233;DHT22;30969;51.052;17.056;2023-06-14T14:15:16;22.40;47.10
45233;DHT22;30969;51.052;17.056;2023-06-14T14:20:19;22.40;46.90
45233;DHT22;30969;51.052;17.056;2023-06-14T14:25:25;22.30;46.70
45233;DHT22;30969;51.052;17.056;2023-06-14T14:30:28;22.30;46.90
45233;DHT22;30969;51.052;17.056;2023-06-14T14:35:32;22.30;46.70
45233;DHT22;30969;51.052;17.056;2023-06-14T14:40:37;22.20;46.70
45233;DHT22;30969;51.052;17.056;2023-06-14T14:45:40;22.10;46.70
45233;DHT22;30969;51.052;17.056;2023-06-14T14:50:45;22.00;46.60
45233;DHT22;30969;51.052;17.056;2023-06-14T14:55:50;21.90;46.70
45233;DHT22;30969;51.052;17.056;2023-06-14T15:00:54;21.80;46.80
45233;DHT22;30969;51.052;17.056;2023-06-14T15:05:57;21.70;47.60
45233;DHT22;30969;51.052;17.056;2023-06-14T15:11:02;21.60;48.70
45233;DHT22;30969;51.052;17.056;2023-06-14T15:16:06;21.50;49.70
45233;DHT22;30969;51.052;17.056;2023-06-14T15:21:09;21.40;50.60
45233;DHT22;30969;51.052;17.056;2023-06-14T15:26:14;21.20;51.10
45233;DHT22;30969;51.052;17.056;2023-06-14T15:31:18;21.10;51.80
45233;DHT22;30969;51.052;17.056;2023-06-14T15:36:22;21.00;52.30
45233;DHT22;30969;51.052;17.056;2023-06-14T15:41:26;20.90;52.80
45233;DHT22;30969;51.052;17.056;2023-06-14T15:46:30;20.80;53.00
45233;DHT22;30969;51.052;17.056;2023-06-14T15:51:33;20.70;53.20
45233;DHT22;30969;51.052;17.056;2023-06-14T15:56:38;20.70;53.60
45233;DHT22;30969;51.052;17.056;2023-06-14T16:01:42;20.60;53.60
45233;DHT22;30969;51.052;17.056;2023-06-14T16:06:46;20.60;53.50
45233;DHT22;30969;51.052;17.056;2023-06-14T16:11:51;20.60;53.70
45233;DHT22;30969;51.052;17.056;2023-06-14T16:16:56;20.60;53.50
45233;DHT22;30969;51.052;17.056;2023-06-14T16:22:02;20.60;53.60
45233;DHT22;30969;51.052;17.056;2023-06-14T16:27:10;20.60;54.20
45233;DHT22;30969;51.052;17.056;2023-06-14T16:32:16;20.60;53.60
45233;DHT22;30969;51.052;17.056;2023-06-14T16:37:20;20.70;53.40
45233;DHT22;30969;51.052;17.056;2023-06-14T16:42:35;20.70;53.20
45233;DHT22;30969;51.052;17.056;2023-06-14T16:47:39;20.70;52.70
45233;DHT22;30969;51.052;17.056;2023-06-14T16:52:42;20.70;52.20
45233;DHT22;30969;51.052;17.056;2023-06-14T16:57:48;20.70;51.90
45233;DHT22;30969;51.052;17.056;2023-06-14T17:02:52;20.70;51.60
45233;DHT22;30969;51.052;17.056;2023-06-14T17:07:56;20.60;51.10
45233;DHT22;30969;51.052;17.056;2023-06-14T17:13:03;20.60;50.40
45233;DHT22;30969;51.052;17.056;2023-06-14T17:18:06;20.60;49.80
45233;DHT22;30969;51.052;17.056;2023-06-14T17:23:11;20.60;49.80
45233;DHT22;30969;51.052;17.056;2023-06-14T17:28:17;20.60;49.90
45233;DHT22;30969;51.052;17.056;2023-06-14T17:33:21;20.50;50.00
45233;DHT22;30969;51.052;17.056;2023-06-14T17:38:24;20.50;50.00
45233;DHT22;30969;51.052;17.056;2023-06-14T17:43:31;20.50;50.10
45233;DHT22;30969;51.052;17.056;2023-06-14T17:48:34;20.50;50.40
45233;DHT22;30969;51.052;17.056;2023-06-14T17:53:39;20.40;50.70
45233;DHT22;30969;51.052;17.056;2023-06-14T17:58:44;20.40;50.20
45233;DHT22;30969;51.052;17.056;2023-06-14T18:03:47;20.40;49.90
45233;DHT22;30969;51.052;17.056;2023-06-14T18:08:51;20.40;49.90
45233;DHT22;30969;51.052;17.056;2023-06-14T18:13:56;20.40;49.60
45233;DHT22;30969;51.052;17.056;2023-06-14T18:19:00;20.40;49.50
45233;DHT22;30969;51.052;17.056;2023-06-14T18:24:04;20.30;49.50
45233;DHT22;30969;51.052;17.056;2023-06-14T18:29:09;20.30;49.10
45233;DHT22;30969;51.052;17.056;2023-06-14T18:34:13;20.20;49.00
45233;DHT22;30969;51.052;17.056;2023-06-14T18:39:17;20.20;49.10
45233;DHT22;30969;51.052;17.056;2023-06-14T18:44:22;20.20;49.00
45233;DHT22;30969;51.052;17.056;2023-06-14T18:49:26;20.10;49.30
45233;DHT22;30969;51.052;17.056;2023-06-14T18:54:30;20.10;49.80
45233;DHT22;30969;51.052;17.056;2023-06-14T18:59:36;20.00;49.70
45233;DHT22;30969;51.052;17.056;2023-06-14T19:04:40;20.00;49.70
45233;DHT22;30969;51.052;17.056;2023-06-14T19:09:43;19.90;49.70
45233;DHT22;30969;51.052;17.056;2023-06-14T19:14:48;19.90;50.00
45233;DHT22;30969;51.052;17.056;2023-06-14T19:19:52;19.90;49.80
45233;DHT22;30969;51.052;17.056;2023-06-14T19:24:56;19.80;50.10
45233;DHT22;30969;51.052;17.056;2023-06-14T19:30:00;19.80;50.00
45233;DHT22;30969;51.052;17.056;2023-06-14T19:35:06;19.80;49.60
45233;DHT22;30969;51.052;17.056;2023-06-14T19:40:11;19.70;49.50
45233;DHT22;30969;51.052;17.056;2023-06-14T19:45:17;19.60;49.20
45233;DHT22;30969;51.052;17.056;2023-06-14T19:50:22;19.60;49.20
45233;DHT22;30969;51.052;17.056;2023-06-14T19:55:27;19.60;49.30
45233;DHT22;30969;51.052;17.056;2023-06-14T20:00:33;19.50;49.50
45233;DHT22;30969;51.052;17.056;2023-06-14T20:05:37;19.50;49.40
45233;DHT22;30969;51.052;17.056;2023-06-14T20:10:41;19.50;50.90
45233;DHT22;30969;51.052;17.056;2023-06-14T20:15:48;19.40;51.70
45233;DHT22;30969;51.052;17.056;2023-06-14T20:20:52;19.40;51.80
45233;DHT22;30969;51.052;17.056;2023-06-14T20:25:57;19.30;51.70
45233;DHT22;30969;51.052;17.056;2023-06-14T20:31:02;19.30;51.60
45233;DHT22;30969;51.052;17.056;2023-06-14T20:36:07;19.30;51.10
45233;DHT22;30969;51.052;17.056;2023-06-14T20:41:11;19.20;50.70
45233;DHT22;30969;51.052;17.056;2023-06-14T20:46:17;19.20;50.70
45233;DHT22;30969;51.052;17.056;2023-06-14T20:51:21;19.20;50.40
45233;DHT22;30969;51.052;17.056;2023-06-14T20:56:25;19.20;50.30
45233;DHT22;30969;51.052;17.056;2023-06-14T21:01:30;19.10;50.50
45233;DHT22;30969;51.052;17.056;2023-06-14T21:06:38;19.10;50.70
45233;DHT22;30969;51.052;17.056;2023-06-14T21:11:41;19.10;50.40
45233;DHT22;30969;51.052;17.056;2023-06-14T21:16:47;19.10;50.20
45233;DHT22;30969;51.052;17.056;2023-06-14T21:21:52;19.10;50.20
45233;DHT22;30969;51.052;17.056;2023-06-14T21:26:57;19.00;51.40
45233;DHT22;30969;51.052;17.056;2023-06-14T21:32:02;19.00;51.80
45233;DHT22;30969;51.052;17.056;2023-06-14T21:37:06;19.00;51.40
45233;DHT22;30969;51.052;17.056;2023-06-14T21:42:11;18.90;51.20
45233;DHT22;30969;51.052;17.056;2023-06-14T21:47:16;18.90;51.10
45233;DHT22;30969;51.052;17.056;2023-06-14T21:52:20;18.90;50.50
45233;DHT22;30969;51.052;17.056;2023-06-14T21:57:24;18.90;50.40
45233;DHT22;30969;51.052;17.056;2023-06-14T22:02:30;18.90;50.30
45233;DHT22;30969;51.052;17.056;2023-06-14T22:07:34;18.90;50.40
45233;DHT22;30969;51.052;17.056;2023-06-14T22:12:37;18.80;50.40
45233;DHT22;30969;51.052;17.056;2023-06-14T22:17:43;18.80;50.10
45233;DHT22;30969;51.052;17.056;2023-06-14T22:22:46;18.80;50.10
45233;DHT22;30969;51.052;17.056;2023-06-14T22:27:52;18.70;50.00
45233;DHT22;30969;51.052;17.056;2023-06-14T22:32:56;18.70;50.70
45233;DHT22;30969;51.052;17.056;2023-06-14T22:38:01;18.70;50.80
45233;DHT22;30969;51.052;17.056;2023-06-14T22:43:04;18.60;50.60
45233;DHT22;30969;51.052;17.056;2023-06-14T22:48:09;18.60;50.60
45233;DHT22;30969;51.052;17.056;2023-06-14T22:53:12;18.50;50.70
45233;DHT22;30969;51.052;17.056;2023-06-14T22:58:17;18.40;50.70
45233;DHT22;30969;51.052;17.056;2023-06-14T23:03:22;18.40;51.10
45233;DHT22;30969;51.052;17.056;2023-06-14T23:08:26;18.30;51.10
45233;DHT22;30969;51.052;17.056;2023-06-14T23:13:29;18.30;51.40
45233;DHT22;30969;51.052;17.056;2023-06-14T23:18:34;18.20;51.30
45233;DHT22;30969;51.052;17.056;2023-06-14T23:23:38;18.20;51.50
45233;DHT22;30969;51.052;17.056;2023-06-14T23:28:42;18.10;52.30
45233;DHT22;30969;51.052;17.056;2023-06-14T23:33:49;18.10;53.20
45233;DHT22;30969;51.052;17.056;2023-06-14T23:38:55;18.00;54.80
45233;DHT22;30969;51.052;17.056;2023-06-14T23:43:59;17.90;53.80
45233;DHT22;30969;51.052;17.056;2023-06-14T23:49:05;17.80;53.40
45233;DHT22;30969;51.052;17.056;2023-06-14T23:54:08;17.80;52.90
45233;DHT22;30969;51.052;17.056;2023-06-14T23:59:14;17.70;52.70
